This is the latest recevied weather packets stored in our database for station/object 9M4RBN-3. If no packets are shown the sender has not sent any weather packets the latest 10 day(s).
| Time | Temp. | Humidity | Pressure | Rain* | Wind** | Luminosity | Snow |
|---|---|---|---|---|---|---|---|
| 1788003250 | 26.11° C | 63% | 1015.3 hPa | - | - | - | - |
| 1788002350 | 25° C | 41% | 1015.4 hPa | - | - | - | - |
| 1788001450 | 25.56° C | 40% | 1015.1 hPa | - | - | - | - |
| 1788000550 | 25.56° C | 39% | 1015.2 hPa | - | - | - | - |
| 1787999650 | 25.56° C | 39% | 1014.8 hPa | - | - | - | - |
| 1787998750 | 25.56° C | 39% | 1014.5 hPa | - | - | - | - |
| 1787997850 | 26.11° C | 39% | 1014.6 hPa | - | - | - | - |
| 1787996950 | 26.11° C | 39% | 1014.5 hPa | - | - | - | - |
| 1787996050 | 26.11° C | 40% | 1014.2 hPa | - | - | - | - |
| 1787995150 | 26.67° C | 41% | 1014.4 hPa | - | - | - | - |
| 1787994250 | 27.22° C | 48% | 1014.3 hPa | - | - | - | - |
| 1787993358 | 27.78° C | 62% | 1014.2 hPa | - | - | - | - |
| 1787992450 | 26.11° C | 52% | 1014.7 hPa | - | - | - | - |
| 1787991550 | 26.11° C | 51% | 1015 hPa | - | - | - | - |
| 1787990681 | 26.11° C | 51% | 1015.3 hPa | - | - | - | - |
| 1787990650 | 26.11° C | 51% | 1015.3 hPa | - | - | - | - |
| 1787989750 | 26.11° C | 52% | 1015.5 hPa | - | - | - | - |
| 1787988849 | 26.11° C | 52% | 1015.5 hPa | - | - | - | - |
| 1787987949 | 26.11° C | 52% | 1015.4 hPa | - | - | - | - |
| 1787987083 | 26.11° C | 53% | 1015.6 hPa | - | - | - | - |
| 1787987049 | 26.11° C | 53% | 1015.6 hPa | - | - | - | - |
| 1787986149 | 25.56° C | 53% | 1015.9 hPa | - | - | - | - |
| 1787985249 | 25.56° C | 52% | 1016.1 hPa | - | - | - | - |
| 1787984349 | 25.56° C | 53% | 1016.3 hPa | - | - | - | - |
| 1787983449 | 25.56° C | 53% | 1016.6 hPa | - | - | - | - |
* Rain since midnight (hover to see other rain measurements)
** Current wind speed in m/s (hover to see current wind gust speed)